Decoded Metar for LFJR (ANGERS in FRANCE) (IATA:N/A) | Meteo·Mobile Aviation Weather
aviador You're here:

LFJR Decoded Metar

ANGERS in FRANCE
Report Time2019-04-23 08:30:00
UTC Time2019-04-23 08:42:56
Flight Rules vfr VFR
Wind140° at 04 kt
W.Decomp.*RWY 08: 1.9 kt HW 3.5 kt RCW
Visibility9999 m
Phenomena:N/A
Clouds:N/A
Expected CloudBase > 2,000 ft AGL from Temp-Dew spread
Ceiling4,000 ft
Temp16°C (ISA +1)
Dew Point11°C (72% RH)
AAT14.9°C
QNH0996 hPa
Density Alt1,115 ft
Elevation197 ft
Report Wrong Elevation
Raw Report
METAR LFJR 230830Z AUTO 14004KT 110V180 CAVOK 16/11 Q0996 TEMPO
BKN040TCU=

Extra information for LFJR:More info

Metar Taf Metar & Taf Last 4 Metars F.Rules Stats Wind Profile Meteogram Temp Stats Airport Information Weather charts Add Link Nearby VenuesMetar ALERT Operation Metar Decoded Social comments